Temp: 10.3°C   Baro: 1019.6mb
  Wind: 0.0mph   Dir: SW (231°)
  Rain: 0.0mm (0.0mm/hr)
  Solar: 0W/m2  Hum: 89%
 
Bath Spa Weather Station Historical Data
Daily Summary for September 29, 2020 Units:  Metric    English   Both
Daily Weekly Monthly Yearly Custom
  High: Low: Average:
Temperature: 18.8 °C 9.9 °C 14.1 °C
Dew Point: 14.9 °C 8.3 °C 11.6 °C
Humidity: 95% 55.2% 83%
Wind Speed: 11.7km/h 0km/h 2.7km/h
Wind Gust: 20.9km/h - -
Wind- - WNW
Pressure: 1016.8 hPa 1013.8 hPa -
Precipitation: 0.51 mm    
Historical Graphs
 
 
Tabular Data for September 29, 2020
Time Temperature Dew Point Pressure Wind Wind Speed Wind Gust Humidity Rainfall Rate (Hourly) solar
00:04 15.2 °C 14.7 °C 1013.8 hPa WSW 1.3 km/h 4.8 km/h 94% 0.25 mm 0 W/m2
00:09 15.2 °C 14.8 °C 1013.8 hPa WSW 3.2 km/h 6.4 km/h 94.4% 0.25 mm 0 W/m2
00:14 15.2 °C 14.8 °C 1013.8 hPa WSW 3.9 km/h 9.7 km/h 94.8% 0.25 mm 0 W/m2
00:19 15.2 °C 14.9 °C 1013.8 hPa West 3.4 km/h 9.7 km/h 95% 0.25 mm 0 W/m2
00:24 15.2 °C 14.9 °C 1013.8 hPa West 4 km/h 8 km/h 95% 0.25 mm 0 W/m2
00:29 15.2 °C 14.9 °C 1013.8 hPa West 4.2 km/h 6.4 km/h 95% 0.25 mm 0 W/m2
00:34 15.2 °C 14.9 °C 1013.8 hPa West 4.3 km/h 9.7 km/h 95% 0.25 mm 0 W/m2
00:39 15.2 °C 14.9 °C 1013.8 hPa WNW 3.4 km/h 6.4 km/h 95% 0.25 mm 0 W/m2
00:44 15.2 °C 14.9 °C 1013.8 hPa WNW 4 km/h 8 km/h 95% 0.25 mm 0 W/m2
00:49 15.1 °C 14.8 °C 1013.8 hPa WNW 6.3 km/h 14.5 km/h 95% 0.51 mm 0 W/m2
00:54 14.9 °C 14.7 °C 1013.8 hPa NW 5.5 km/h 12.9 km/h 95% 0.51 mm 0 W/m2
00:59 14.8 °C 14.5 °C 1013.8 hPa WNW 1.3 km/h 8 km/h 95% 0.51 mm 0 W/m2
01:04 14.8 °C 14.5 °C 1013.8 hPa NW 4.2 km/h 11.3 km/h 95% 0.51 mm 0 W/m2
01:09 14.8 °C 14.4 °C 1013.8 hPa WNW 2.7 km/h 9.7 km/h 95% 0.51 mm 0 W/m2
01:14 14.7 °C 14.4 °C 1013.8 hPa NW 4 km/h 11.3 km/h 95% 0.51 mm 0 W/m2
01:19 14.5 °C 14.2 °C 1013.8 hPa NW 7.2 km/h 17.7 km/h 95% 0.51 mm 0 W/m2
01:24 14.3 °C 14.1 °C 1013.8 hPa NW 6 km/h 11.3 km/h 95% 0.51 mm 0 W/m2
01:29 14.3 °C 14 °C 1013.8 hPa NW 4.8 km/h 14.5 km/h 95% 0.51 mm 0 W/m2
01:34 14.3 °C 13.9 °C 1014.1 hPa NW 6.1 km/h 14.5 km/h 95% 0.51 mm 0 W/m2
01:39 14.2 °C 13.9 °C 1014.1 hPa NW 3.7 km/h 9.7 km/h 95% 0.25 mm 0 W/m2
01:44 14.2 °C 13.9 °C 1014.1 hPa NNW 1.9 km/h 9.7 km/h 95% 0.25 mm 0 W/m2
01:49 14.2 °C 13.9 °C 1014.1 hPa NW 2.7 km/h 9.7 km/h 95% 0 mm 0 W/m2
01:54 14.1 °C 13.8 °C 1014.1 hPa NNW 4.5 km/h 9.7 km/h 95% 0 mm 0 W/m2
01:59 14.1 °C 13.7 °C 1014.1 hPa WNW 3.1 km/h 9.7 km/h 95% 0.25 mm 0 W/m2
02:04 13.9 °C 13.7 °C 1014.1 hPa NW 3.2 km/h 8 km/h 95% 0.25 mm 0 W/m2
02:09 13.8 °C 13.6 °C 1014.4 hPa NNW 6.6 km/h 14.5 km/h 95% 0.25 mm 0 W/m2
02:14 13.8 °C 13.5 °C 1014.4 hPa NNW 6.3 km/h 14.5 km/h 95% 0.25 mm 0 W/m2
02:19 13.8 °C 13.5 °C 1014.4 hPa Calm   4.8 km/h 95% 0.25 mm 0 W/m2
02:24 13.8 °C 13.5 °C 1014.4 hPa North 1.6 km/h 8 km/h 95% 0.25 mm 0 W/m2
02:29 13.8 °C 13.4 °C 1014.4 hPa Calm   4.8 km/h 95% 0.25 mm 0 W/m2
02:34 13.7 °C 13.4 °C 1014.4 hPa NW 2.1 km/h 8 km/h 95% 0.25 mm 0 W/m2
02:39 13.6 °C 13.3 °C 1014.4 hPa NW 3.5 km/h 8 km/h 95% 0.25 mm 0 W/m2
02:44 13.6 °C 13.3 °C 1014.4 hPa NW 2.7 km/h 8 km/h 95% 0.25 mm 0 W/m2
02:49 13.6 °C 13.3 °C 1014.4 hPa WNW 0.3 km/h 3.2 km/h 95% 0.25 mm 0 W/m2
02:54 13.6 °C 13.3 °C 1014.4 hPa WNW 0.3 km/h 3.2 km/h 95% 0.25 mm 0 W/m2
02:59 13.6 °C 13.3 °C 1014.4 hPa WNW 0.3 km/h 1.6 km/h 95% 0.25 mm 0 W/m2
03:04 13.5 °C 13.2 °C 1014.4 hPa WNW 0.3 km/h 3.2 km/h 95% 0 mm 0 W/m2
03:09 13.4 °C 13.1 °C 1014.4 hPa WNW 0.3 km/h 3.2 km/h 95% 0 mm 0 W/m2
03:14 13.4 °C 13.2 °C 1014.4 hPa WNW 1.3 km/h 3.2 km/h 95% 0 mm 0 W/m2
03:19 13.5 °C 13.2 °C 1014.4 hPa WNW 1 km/h 3.2 km/h 94.8% 0 mm 0 W/m2
03:24 13.4 °C 13.1 °C 1014.4 hPa WNW 0.8 km/h 4.8 km/h 94.8% 0 mm 0 W/m2
03:29 13.4 °C 13 °C 1014.4 hPa WNW 1.6 km/h 6.4 km/h 94.6% 0 mm 0 W/m2
03:34 13.4 °C 13 °C 1014.4 hPa WNW 1.9 km/h 6.4 km/h 94.6% 0 mm 0 W/m2
03:39 13.4 °C 12.9 °C 1014.4 hPa West 4.3 km/h 8 km/h 94% 0 mm 0 W/m2
03:44 13.3 °C 12.9 °C 1014.4 hPa West 4.2 km/h 6.4 km/h 94.4% 0 mm 0 W/m2
03:49 13.3 °C 12.9 °C 1014.4 hPa West 1.3 km/h 6.4 km/h 94.2% 0 mm 0 W/m2
03:54 13.3 °C 12.9 °C 1014.4 hPa West 2.6 km/h 4.8 km/h 94.6% 0 mm 0 W/m2
03:59 13.3 °C 13 °C 1014.4 hPa West 2.9 km/h 6.4 km/h 95% 0 mm 0 W/m2
04:04 13.3 °C 13 °C 1014.4 hPa West 1.4 km/h 6.4 km/h 95% 0 mm 0 W/m2
04:09 13.3 °C 12.9 °C 1014.4 hPa West 3.2 km/h 6.4 km/h 95% 0 mm 0 W/m2
04:14 13.2 °C 12.9 °C 1014.4 hPa West 2.1 km/h 6.4 km/h 95% 0 mm 0 W/m2
04:19 13.2 °C 12.9 °C 1014.4 hPa West 1.3 km/h 4.8 km/h 94.8% 0 mm 0 W/m2
04:24 13.2 °C 12.9 °C 1014.4 hPa Calm   3.2 km/h 95% 0 mm 0 W/m2
04:29 13.2 °C 12.9 °C 1014.4 hPa West 1.9 km/h 4.8 km/h 95% 0 mm 0 W/m2
04:34 13.2 °C 12.9 °C 1014.4 hPa West 2.1 km/h 4.8 km/h 95% 0 mm 0 W/m2
04:39 13.2 °C 12.9 °C 1014.4 hPa West 0.6 km/h 4.8 km/h 95% 0 mm 0 W/m2
04:44 13.2 °C 12.9 °C 1014.8 hPa West 1.3 km/h 4.8 km/h 95% 0 mm 0 W/m2
04:49 13.2 °C 12.9 °C 1014.8 hPa West 0.6 km/h 4.8 km/h 95% 0 mm 0 W/m2
04:54 13.2 °C 12.8 °C 1014.8 hPa Calm   1.6 km/h 95% 0 mm 0 W/m2
04:59 13.1 °C 12.8 °C 1014.8 hPa Calm   3.2 km/h 95% 0 mm 0 W/m2
05:04 13.1 °C 12.8 °C 1014.8 hPa Calm     95% 0 mm 0 W/m2
05:09 13.1 °C 12.8 °C 1014.8 hPa Calm     94.5% 0 mm 0 W/m2
05:14 13.1 °C 12.8 °C 1014.8 hPa Calm     94.8% 0 mm 0 W/m2
05:19 13.1 °C 12.8 °C 1014.8 hPa West 0.3 km/h 3.2 km/h 94.6% 0 mm 0 W/m2
05:24 13.1 °C 12.7 °C 1014.8 hPa Calm   1.6 km/h 94% 0 mm 0 W/m2
05:29 13.1 °C 12.7 °C 1014.8 hPa Calm   1.6 km/h 94.4% 0 mm 0 W/m2
05:34 13 °C 12.7 °C 1014.8 hPa West 0.3 km/h 1.6 km/h 94.8% 0 mm 0 W/m2
05:39 12.9 °C 12.6 °C 1014.8 hPa Calm     94.8% 0 mm 0 W/m2
05:44 12.9 °C 12.7 °C 1014.8 hPa Calm   3.2 km/h 95% 0 mm 0 W/m2
05:49 12.9 °C 12.6 °C 1014.8 hPa Calm   1.6 km/h 95% 0 mm 0 W/m2
05:54 12.9 °C 12.6 °C 1014.8 hPa Calm   3.2 km/h 95% 0 mm 0 W/m2
05:59 12.9 °C 12.6 °C 1014.8 hPa West 0.3 km/h 3.2 km/h 95% 0 mm 0 W/m2
06:04 12.8 °C 12.5 °C 1015.1 hPa Calm     95% 0 mm 0 W/m2
06:09 12.8 °C 12.5 °C 1015.1 hPa Calm   1.6 km/h 95% 0 mm 0 W/m2
06:14 12.7 °C 12.4 °C 1015.1 hPa Calm   1.6 km/h 95% 0 mm 0 W/m2
06:19 12.7 °C 12.4 °C 1015.1 hPa Calm     95% 0 mm 0 W/m2
06:24 12.7 °C 12.4 °C 1015.1 hPa Calm   1.6 km/h 95% 0 mm 0 W/m2
06:29 12.6 °C 12.3 °C 1015.1 hPa West 0.6 km/h 3.2 km/h 95% 0 mm 0 W/m2
06:34 12.6 °C 12.3 °C 1015.1 hPa West 0.6 km/h 3.2 km/h 95% 0 mm 0 W/m2
06:39 12.6 °C 12.3 °C 1015.1 hPa Calm     95% 0 mm 0 W/m2
06:44 12.5 °C 12.2 °C 1015.1 hPa Calm     95% 0 mm 0 W/m2
06:49 12.4 °C 12.2 °C 1015.1 hPa Calm   1.6 km/h 95% 0 mm 0 W/m2
06:54 12.4 °C 12.1 °C 1015.1 hPa Calm     95% 0 mm 0 W/m2
06:59 12.3 °C 12.1 °C 1015.1 hPa Calm     95% 0 mm 0 W/m2
07:04 12.2 °C 11.9 °C 1015.5 hPa Calm     95% 0 mm 0 W/m2
07:09 12.1 °C 11.8 °C 1015.5 hPa Calm     95% 0 mm 0 W/m2
07:14 12.1 °C 11.8 °C 1015.5 hPa Calm     95% 0 mm 7 W/m2
07:18 12 °C 11.7 °C 1015.5 hPa Calm     95% 0 mm 9 W/m2
07:24 11.9 °C 11.7 °C 1015.5 hPa Calm     95% 0 mm 12 W/m2
07:29 11.9 °C 11.6 °C 1015.5 hPa Calm     95% 0 mm 18 W/m2
07:34 11.9 °C 11.6 °C 1015.5 hPa Calm     95% 0 mm 23 W/m2
07:39 11.8 °C 11.5 °C 1015.8 hPa Calm     95% 0 mm 26 W/m2
07:44 11.8 °C 11.5 °C 1015.8 hPa Calm     95% 0 mm 32 W/m2
07:49 11.8 °C 11.6 °C 1015.8 hPa Calm   1.6 km/h 95% 0 mm 35 W/m2
07:54 11.9 °C 11.6 °C 1015.8 hPa Calm     95% 0 mm 37 W/m2
07:59 11.9 °C 11.6 °C 1015.8 hPa Calm     95% 0 mm 37 W/m2
08:04 11.9 °C 11.6 °C 1015.8 hPa Calm     95% 0 mm 40 W/m2
08:09 11.9 °C 11.6 °C 1016.1 hPa Calm     95% 0 mm 53 W/m2
08:14 11.9 °C 11.6 °C 1016.1 hPa West 0.3 km/h 3.2 km/h 95% 0 mm 47 W/m2
08:19 11.8 °C 11.5 °C 1016.1 hPa Calm     95% 0 mm 46 W/m2
08:24 11.8 °C 11.4 °C 1016.1 hPa Calm     95% 0 mm 40 W/m2
08:29 11.7 °C 11.4 °C 1016.1 hPa West 1 km/h 3.2 km/h 95% 0 mm 42 W/m2
08:34 11.7 °C 11.4 °C 1016.1 hPa West 0.8 km/h 3.2 km/h 95% 0 mm 49 W/m2
08:39 11.7 °C 11.4 °C 1016.1 hPa West 0.3 km/h 1.6 km/h 95% 0 mm 56 W/m2
08:44 11.7 °C 11.4 °C 1016.1 hPa Calm   1.6 km/h 95% 0 mm 67 W/m2
08:49 11.8 °C 11.4 °C 1016.1 hPa Calm     95% 0 mm 137 W/m2
08:54 11.8 °C 11.6 °C 1016.1 hPa West 0.6 km/h 3.2 km/h 95% 0 mm 174 W/m2
08:59 11.8 °C 11.5 °C 1016.1 hPa WNW 2.6 km/h 9.7 km/h 95% 0 mm 97 W/m2
09:04 11.8 °C 11.6 °C 1016.1 hPa NW 2.9 km/h 9.7 km/h 95% 0 mm 209 W/m2
09:09 12.1 °C 11.8 °C 1016.1 hPa NW 4.5 km/h 9.7 km/h 95% 0 mm 167 W/m2
09:14 12.2 °C 11.8 °C 1016.5 hPa NW 3.2 km/h 8 km/h 95% 0 mm 227 W/m2
09:19 12.3 °C 12 °C 1016.5 hPa NNW 4 km/h 8 km/h 95% 0 mm 250 W/m2
09:23 12.3 °C 11.9 °C 1016.5 hPa NW 1.1 km/h 11.3 km/h 94% 0 mm 260 W/m2
09:29 12.4 °C 12 °C 1016.5 hPa NW 3.9 km/h 11.3 km/h 94% 0 mm 214 W/m2
09:34 12.4 °C 11.8 °C 1016.5 hPa NW 5 km/h 9.7 km/h 93.2% 0 mm 104 W/m2
09:39 12.6 °C 11.9 °C 1016.5 hPa NNW 2.3 km/h 8 km/h 92.6% 0 mm 287 W/m2
09:44 12.9 °C 12.1 °C 1016.5 hPa NNW 5.5 km/h 9.7 km/h 91.6% 0 mm 294 W/m2
09:49 12.9 °C 11.9 °C 1016.5 hPa NNW 4.5 km/h 11.3 km/h 90.4% 0 mm 306 W/m2
09:54 13.2 °C 11.9 °C 1016.5 hPa NW 3.4 km/h 8 km/h 89% 0 mm 323 W/m2
09:59 13.3 °C 11.8 °C 1016.5 hPa NNW 2.7 km/h 8 km/h 88% 0 mm 336 W/m2
10:04 13.4 °C 11.8 °C 1016.5 hPa NNW 3.1 km/h 9.7 km/h 87% 0 mm 353 W/m2
10:09 13.5 °C 11.8 °C 1016.5 hPa NW 6.1 km/h 11.3 km/h 86.4% 0 mm 371 W/m2
10:14 13.6 °C 11.8 °C 1016.5 hPa NW 3.4 km/h 9.7 km/h 86% 0 mm 378 W/m2
10:19 13.7 °C 11.8 °C 1016.5 hPa NNW 2.9 km/h 9.7 km/h 85.6% 0 mm 350 W/m2
10:24 13.7 °C 11.8 °C 1016.5 hPa NW 4.5 km/h 8 km/h 85.4% 0 mm 253 W/m2
10:29 13.5 °C 11.6 °C 1016.5 hPa NW 5 km/h 9.7 km/h 85.4% 0 mm 144 W/m2
10:34 13.3 °C 11.4 °C 1016.8 hPa NW 7.1 km/h 11.3 km/h 85.4% 0 mm 355 W/m2
10:39 13.4 °C 11.6 °C 1016.8 hPa NW 5.1 km/h 11.3 km/h 85.8% 0 mm 457 W/m2
10:44 13.8 °C 11.8 °C 1016.8 hPa NNW 5.6 km/h 9.7 km/h 85.3% 0 mm 454 W/m2
10:49 14.1 °C 11.9 °C 1016.8 hPa North 2.7 km/h 9.7 km/h 84.2% 0 mm 476 W/m2
10:54 14.2 °C 11.8 °C 1016.8 hPa North 4.8 km/h 11.3 km/h 83% 0 mm 522 W/m2
10:59 14.4 °C 12 °C 1016.5 hPa NW 1.6 km/h 9.7 km/h 83% 0 mm 524 W/m2
11:04 14.8 °C 12.2 °C 1016.5 hPa NW 3.2 km/h 8 km/h 82% 0 mm 564 W/m2
11:09 14.8 °C 12.2 °C 1016.5 hPa NNW 3.9 km/h 8 km/h 82% 0 mm 520 W/m2
11:14 14.5 °C 11.8 °C 1016.5 hPa WNW 1.9 km/h 8 km/h 81.4% 0 mm 496 W/m2
11:19 14.7 °C 12.1 °C 1016.5 hPa WNW 2.9 km/h 6.4 km/h 81.4% 0 mm 503 W/m2
11:24 15.2 °C 12.4 °C 1016.5 hPa West 3.4 km/h 8 km/h 81% 0 mm 506 W/m2
11:29 15.4 °C 12.4 °C 1016.5 hPa West 2.7 km/h 6.4 km/h 79.8% 0 mm 517 W/m2
11:34 15.4 °C 12.1 °C 1016.5 hPa WNW 1.9 km/h 8 km/h 78% 0 mm 527 W/m2
11:39 15.4 °C 12.2 °C 1016.5 hPa NW 1.3 km/h 8 km/h 78.6% 0 mm 520 W/m2
11:44 15.9 °C 12.5 °C 1016.5 hPa NW 1 km/h 4.8 km/h 77.2% 0 mm 526 W/m2
11:49 16 °C 12.5 °C 1016.5 hPa WNW 3.5 km/h 9.7 km/h 76.8% 0 mm 533 W/m2
11:54 16 °C 12.6 °C 1016.5 hPa West 5.1 km/h 8 km/h 77% 0 mm 536 W/m2
11:59 16.1 °C 12.4 °C 1016.5 hPa West 3.2 km/h 8 km/h 76% 0 mm 543 W/m2
12:04 16.3 °C 12.4 °C 1016.5 hPa WSW 4.7 km/h 8 km/h 75.6% 0 mm 538 W/m2
12:09 16.3 °C 12.3 °C 1016.5 hPa West 6.4 km/h 9.7 km/h 75.2% 0 mm 545 W/m2
12:14 16 °C 12.2 °C 1016.5 hPa West 3.4 km/h 9.7 km/h 75.4% 0 mm 550 W/m2
12:19 16.3 °C 12.3 °C 1016.5 hPa WNW 5.8 km/h 11.3 km/h 75.2% 0 mm 573 W/m2
12:24 16.1 °C 12.2 °C 1016.5 hPa West 7.9 km/h 12.9 km/h 75.4% 0 mm 573 W/m2
12:29 16.3 °C 12.2 °C 1016.5 hPa West 6.8 km/h 11.3 km/h 74.4% 0 mm 564 W/m2
12:34 16.2 °C 11.9 °C 1016.5 hPa WNW 5.1 km/h 11.3 km/h 73.4% 0 mm 561 W/m2
12:39 16.5 °C 12 °C 1016.5 hPa West 3.9 km/h 11.3 km/h 72.6% 0 mm 570 W/m2
12:44 16.5 °C 11.8 °C 1016.5 hPa NW 6.6 km/h 14.5 km/h 71.6% 0 mm 584 W/m2
12:49 16.7 °C 11.8 °C 1016.5 hPa WNW 4.5 km/h 9.7 km/h 70.4% 0 mm 585 W/m2
12:54 17.2 °C 11.8 °C 1016.5 hPa West 4.5 km/h 11.3 km/h 68.4% 0 mm 649 W/m2
12:58 17 °C 11.3 °C 1016.5 hPa NW 6.8 km/h 9.7 km/h 67.3% 0 mm 712 W/m2
13:04 16.9 °C 11.4 °C 1016.1 hPa NW 1.6 km/h 11.3 km/h 67.8% 0 mm 747 W/m2
13:09 17.8 °C 11.7 °C 1016.1 hPa WNW 4 km/h 9.7 km/h 65.8% 0 mm 330 W/m2
13:14 17.6 °C 12.3 °C 1016.1 hPa WNW 5.3 km/h 9.7 km/h 68.8% 0 mm 408 W/m2
13:19 17.2 °C 11.9 °C 1016.1 hPa NNW 7.6 km/h 11.3 km/h 68.8% 0 mm 323 W/m2
13:24 16.6 °C 11.6 °C 1016.1 hPa NNW 5.3 km/h 12.9 km/h 69.6% 0 mm 207 W/m2
13:29 16.3 °C 11.4 °C 1016.1 hPa North 6.3 km/h 14.5 km/h 70.6% 0 mm 262 W/m2
13:34 16.3 °C 11.6 °C 1016.1 hPa NW 2.6 km/h 8 km/h 71% 0 mm 160 W/m2
13:39 16.3 °C 11.6 °C 1016.1 hPa WNW 2.7 km/h 8 km/h 71.4% 0 mm 114 W/m2
13:44 16.4 °C 11.8 °C 1016.1 hPa West 1.6 km/h 4.8 km/h 72% 0 mm 262 W/m2
13:49 16.7 °C 12 °C 1016.1 hPa West 1.3 km/h 3.2 km/h 71.6% 0 mm 262 W/m2
13:54 17 °C 12 °C 1015.8 hPa SSW 3.2 km/h 6.4 km/h 70.2% 0 mm 622 W/m2
13:59 17.2 °C 12 °C 1015.8 hPa SSW 2.1 km/h 6.4 km/h 69.2% 0 mm 496 W/m2
14:04 17.5 °C 11.9 °C 1015.8 hPa SSW 1.3 km/h 4.8 km/h 67.6% 0 mm 587 W/m2
14:09 18.8 °C 12.8 °C 1015.8 hPa SSW 3.4 km/h 9.7 km/h 66.4% 0 mm 605 W/m2
14:14 18.3 °C 12.1 °C 1015.8 hPa SW 2.6 km/h 9.7 km/h 65.2% 0 mm 615 W/m2
14:19 18.4 °C 12.2 °C 1015.8 hPa West 4 km/h 9.7 km/h 64.8% 0 mm 621 W/m2
14:24 18.3 °C 11.7 °C 1015.5 hPa West 4.2 km/h 9.7 km/h 63.4% 0 mm 642 W/m2
14:29 18.2 °C 11.5 °C 1015.5 hPa West 6.8 km/h 11.3 km/h 63% 0 mm 666 W/m2
14:34 18.6 °C 11.3 °C 1015.5 hPa SW 6.6 km/h 12.9 km/h 60.8% 0 mm 311 W/m2
14:44 18 °C 10.6 °C 1015.5 hPa WSW 8.9 km/h 14.5 km/h 60% 0 mm 684 W/m2
14:49 17.7 °C 10.8 °C 1015.5 hPa WSW 7.1 km/h 14.5 km/h 62.2% 0 mm 684 W/m2
14:54 17.7 °C 11.4 °C 1015.5 hPa West 6.1 km/h 12.9 km/h 64.4% 0 mm 577 W/m2
14:59 18 °C 11.2 °C 1015.5 hPa SW 1.9 km/h 6.4 km/h 62.2% 0 mm 550 W/m2
15:04 18 °C 11.2 °C 1015.5 hPa West 5.8 km/h 9.7 km/h 62.6% 0 mm 283 W/m2
15:09 18.2 °C 11.1 °C 1015.5 hPa West 9.3 km/h 20.9 km/h 61.4% 0 mm 336 W/m2
15:14 17.8 °C 10.7 °C 1015.5 hPa WSW 10.6 km/h 20.9 km/h 61.2% 0 mm 299 W/m2
15:19 17.6 °C 10.8 °C 1015.1 hPa West 7.1 km/h 14.5 km/h 62.6% 0 mm 257 W/m2
15:24 17.4 °C 10.9 °C 1015.1 hPa WNW 7.9 km/h 14.5 km/h 63.2% 0 mm 265 W/m2
15:29 17.3 °C 10.8 °C 1015.1 hPa West 7.7 km/h 14.5 km/h 63.4% 0 mm 251 W/m2
15:34 17.4 °C 10.6 °C 1015.1 hPa WNW 7.9 km/h 14.5 km/h 62.2% 0 mm 232 W/m2
15:39 17.3 °C 10.7 °C 1015.1 hPa NW 8 km/h 14.5 km/h 63.2% 0 mm 297 W/m2
15:44 17.4 °C 11.1 °C 1015.1 hPa West 5.3 km/h 9.7 km/h 64.4% 0 mm 315 W/m2
15:49 17.8 °C 10.8 °C 1015.1 hPa West 8.7 km/h 12.9 km/h 61.8% 0 mm 445 W/m2
15:54 17.8 °C 9.9 °C 1015.1 hPa West 7.1 km/h 17.7 km/h 58% 0 mm 411 W/m2
15:59 18 °C 9.7 °C 1015.1 hPa West 7.6 km/h 14.5 km/h 56.5% 0 mm 396 W/m2
16:04 17.9 °C 9.3 °C 1015.1 hPa WSW 6.9 km/h 16.1 km/h 55.2% 0 mm 381 W/m2
16:09 18.1 °C 9.6 °C 1015.1 hPa West 6.4 km/h 12.9 km/h 55.8% 0 mm 383 W/m2
16:14 17.8 °C 9.4 °C 1015.1 hPa WNW 8.5 km/h 12.9 km/h 56.2% 0 mm 185 W/m2
16:19 17.4 °C 9.5 °C 1015.1 hPa West 8.4 km/h 14.5 km/h 58% 0 mm 118 W/m2
16:24 17.2 °C 9.8 °C 1015.1 hPa West 10 km/h 14.5 km/h 60.2% 0 mm 125 W/m2
16:29 17 °C 10.5 °C 1015.1 hPa West 9.7 km/h 19.3 km/h 63.4% 0 mm 134 W/m2
16:34 16.6 °C 10.7 °C 1015.1 hPa WNW 11.7 km/h 20.9 km/h 65.8% 0 mm 127 W/m2
16:39 16.2 °C 10.4 °C 1015.1 hPa WNW 7.7 km/h 16.1 km/h 66.2% 0 mm 121 W/m2
16:44 16.2 °C 10.4 °C 1015.1 hPa West 11.1 km/h 16.1 km/h 67% 0 mm 120 W/m2
16:49 16.1 °C 10.7 °C 1015.1 hPa WNW 5.5 km/h 16.1 km/h 68% 0 mm 125 W/m2
16:54 16.1 °C 10.4 °C 1015.1 hPa WNW 5.8 km/h 16.1 km/h 67.2% 0 mm 111 W/m2
16:59 16.1 °C 10.3 °C 1015.1 hPa WNW 6.9 km/h 12.9 km/h 66.2% 0 mm 109 W/m2
17:04 16.1 °C 10.1 °C 1015.1 hPa WNW 7.1 km/h 12.9 km/h 65.6% 0 mm 114 W/m2
17:09 16.1 °C 9.8 °C 1015.1 hPa West 9.2 km/h 16.1 km/h 64% 0 mm 109 W/m2
17:14 16 °C 9.9 °C 1014.8 hPa WNW 5.6 km/h 12.9 km/h 65.2% 0 mm 102 W/m2
17:19 15.9 °C 10.3 °C 1014.8 hPa WNW 3.9 km/h 8 km/h 66.8% 0 mm 90 W/m2
17:24 15.9 °C 10.5 °C 1014.8 hPa WNW 5.3 km/h 9.7 km/h 68% 0 mm 70 W/m2
17:29 15.8 °C 10.4 °C 1015.1 hPa WNW 7.7 km/h 12.9 km/h 68% 0 mm 53 W/m2
17:34 15.7 °C 10.6 °C 1015.1 hPa West 6.4 km/h 12.9 km/h 69% 0 mm 33 W/m2
17:39 15.7 °C 10.7 °C 1015.1 hPa WNW 4.8 km/h 11.3 km/h 69.8% 0 mm 30 W/m2
17:44 15.7 °C 10.8 °C 1014.8 hPa West 4.5 km/h 9.7 km/h 70.8% 0 mm 56 W/m2
17:49 15.7 °C 10.8 °C 1015.1 hPa WNW 6.6 km/h 11.3 km/h 71% 0 mm 49 W/m2
17:54 15.6 °C 10.8 °C 1015.1 hPa West 5.8 km/h 11.3 km/h 71% 0 mm 69 W/m2
17:59 15.6 °C 10.8 °C 1015.1 hPa WNW 4 km/h 11.3 km/h 71% 0 mm 62 W/m2
18:04 15.6 °C 11.1 °C 1015.1 hPa WNW 5.3 km/h 8 km/h 72% 0 mm 60 W/m2
18:09 15.5 °C 11 °C 1015.1 hPa West 6 km/h 12.9 km/h 72% 0 mm 54 W/m2
18:14 15.3 °C 10.9 °C 1015.1 hPa West 6 km/h 9.7 km/h 72.5% 0 mm 47 W/m2
18:19 15.2 °C 10.9 °C 1015.1 hPa West 6.1 km/h 9.7 km/h 73% 0 mm 40 W/m2
18:24 15.1 °C 10.7 °C 1015.1 hPa WNW 4 km/h 9.7 km/h 73% 0 mm 26 W/m2
18:29 14.9 °C 10.7 °C 1015.1 hPa WNW 1.3 km/h 6.4 km/h 73.6% 0 mm 21 W/m2
18:34 14.9 °C 10.8 °C 1015.1 hPa WNW 0.6 km/h 4.8 km/h 74% 0 mm 16 W/m2
18:39 14.9 °C 10.8 °C 1015.1 hPa WNW 0.6 km/h 3.2 km/h 74% 0 mm 12 W/m2
18:44 14.9 °C 10.8 °C 1015.1 hPa Calm   3.2 km/h 74% 0 mm 9 W/m2
18:49 14.8 °C 10.8 °C 1015.1 hPa WNW 0.6 km/h 4.8 km/h 74.8% 0 mm 5 W/m2
18:54 14.7 °C 10.7 °C 1015.1 hPa WNW 1.9 km/h 3.2 km/h 75% 0 mm 0 W/m2
18:59 14.4 °C 10.6 °C 1015.1 hPa WNW 1.6 km/h 4.8 km/h 75% 0 mm 0 W/m2
19:04 14.3 °C 10.4 °C 1015.1 hPa WNW 2.6 km/h 4.8 km/h 75% 0 mm 0 W/m2
19:09 14.2 °C 10.3 °C 1015.1 hPa WNW 1.3 km/h 4.8 km/h 75% 0 mm 0 W/m2
19:14 14.1 °C 10.2 °C 1015.1 hPa WNW 1 km/h 4.8 km/h 75% 0 mm 0 W/m2
19:19 14.1 °C 10.3 °C 1015.1 hPa WNW 2.1 km/h 4.8 km/h 76% 0 mm 0 W/m2
19:24 13.9 °C 10.2 °C 1015.1 hPa WNW 2.6 km/h 6.4 km/h 76% 0 mm 0 W/m2
19:29 13.8 °C 10.1 °C 1015.1 hPa WNW 2.7 km/h 6.4 km/h 76% 0 mm 0 W/m2
19:34 13.7 °C 10.1 °C 1015.1 hPa Calm   3.2 km/h 76% 0 mm 0 W/m2
19:39 13.7 °C 10 °C 1015.1 hPa WNW 1.6 km/h 3.2 km/h 76% 0 mm 0 W/m2
19:44 13.6 °C 9.9 °C 1015.1 hPa Calm   1.6 km/h 76% 0 mm 0 W/m2
19:49 13.6 °C 9.9 °C 1015.1 hPa Calm     76.2% 0 mm 0 W/m2
19:54 13.4 °C 9.8 °C 1015.1 hPa WNW 1.3 km/h 4.8 km/h 76.4% 0 mm 0 W/m2
19:59 13.4 °C 9.9 °C 1015.1 hPa Calm     77% 0 mm 0 W/m2
20:04 13.3 °C 9.8 °C 1015.1 hPa Calm     77% 0 mm 0 W/m2
20:09 13.3 °C 9.8 °C 1015.1 hPa Calm     77% 0 mm 0 W/m2
20:14 13.2 °C 9.8 °C 1014.8 hPa WNW 1.3 km/h 3.2 km/h 77.6% 0 mm 0 W/m2
20:19 13.1 °C 9.8 °C 1015.1 hPa WNW 2.1 km/h 4.8 km/h 78% 0 mm 0 W/m2
20:24 12.9 °C 9.8 °C 1015.1 hPa WNW 1 km/h 4.8 km/h 78.8% 0 mm 0 W/m2
20:29 12.9 °C 9.8 °C 1015.1 hPa WNW 0.8 km/h 4.8 km/h 79% 0 mm 0 W/m2
20:34 12.8 °C 9.9 °C 1015.1 hPa WNW 0.6 km/h 3.2 km/h 80% 0 mm 0 W/m2
20:39 12.7 °C 9.8 °C 1015.1 hPa WNW 0.3 km/h 1.6 km/h 80% 0 mm 0 W/m2
20:44 12.7 °C 9.9 °C 1014.8 hPa Calm     80.6% 0 mm 0 W/m2
20:49 12.7 °C 10 °C 1014.8 hPa Calm     81% 0 mm 0 W/m2
20:54 12.6 °C 9.9 °C 1014.8 hPa WNW 0.6 km/h 3.2 km/h 81% 0 mm 0 W/m2
20:59 12.6 °C 9.9 °C 1014.8 hPa WNW 1.8 km/h 4.8 km/h 81% 0 mm 0 W/m2
21:04 12.6 °C 9.9 °C 1014.8 hPa WNW 1 km/h 4.8 km/h 81% 0 mm 0 W/m2
21:09 12.6 °C 9.8 °C 1014.8 hPa WNW 1.9 km/h 6.4 km/h 80.8% 0 mm 0 W/m2
21:14 12.6 °C 9.7 °C 1014.8 hPa WNW 0.6 km/h 6.4 km/h 80% 0 mm 0 W/m2
21:19 12.6 °C 9.7 °C 1014.8 hPa Calm     80% 0 mm 0 W/m2
21:23 12.6 °C 9.7 °C 1014.8 hPa Calm     80% 0 mm 0 W/m2
21:29 12.6 °C 9.7 °C 1014.8 hPa Calm     80% 0 mm 0 W/m2
21:34 12.6 °C 9.8 °C 1014.8 hPa Calm     80.2% 0 mm 0 W/m2
21:39 12.6 °C 9.9 °C 1014.8 hPa Calm     81% 0 mm 0 W/m2
21:44 12.5 °C 9.8 °C 1014.8 hPa Calm     81% 0 mm 0 W/m2
21:49 12.3 °C 9.7 °C 1014.8 hPa Calm     81% 0 mm 0 W/m2
21:54 12.2 °C 9.6 °C 1014.4 hPa Calm     81.2% 0 mm 0 W/m2
21:59 12.1 °C 9.6 °C 1014.4 hPa Calm   1.6 km/h 82% 0 mm 0 W/m2
22:04 11.8 °C 9.3 °C 1014.4 hPa Calm     82% 0 mm 0 W/m2
22:09 11.7 °C 9.4 °C 1014.4 hPa Calm     83% 0 mm 0 W/m2
22:14 11.6 °C 9.3 °C 1014.4 hPa Calm     83% 0 mm 0 W/m2
22:19 11.3 °C 9 °C 1014.4 hPa WNW 0.6 km/h 3.2 km/h 83% 0 mm 0 W/m2
22:24 11.1 °C 9 °C 1014.4 hPa Calm   1.6 km/h 84% 0 mm 0 W/m2
22:29 10.9 °C 8.8 °C 1014.4 hPa Calm     84% 0 mm 0 W/m2
22:34 10.8 °C 8.9 °C 1014.4 hPa Calm     85% 0 mm 0 W/m2
22:39 10.7 °C 8.8 °C 1014.1 hPa Calm     85% 0 mm 0 W/m2
22:44 10.6 °C 8.7 °C 1014.1 hPa Calm     85% 0 mm 0 W/m2
22:49 10.5 °C 8.7 °C 1014.1 hPa Calm     85.8% 0 mm 0 W/m2
22:54 10.4 °C 8.6 °C 1014.1 hPa Calm     86% 0 mm 0 W/m2
22:59 10.3 °C 8.6 °C 1014.1 hPa Calm     86% 0 mm 0 W/m2
23:04 10.2 °C 8.4 °C 1014.1 hPa Calm     86% 0 mm 0 W/m2
23:09 10.1 °C 8.3 °C 1014.1 hPa Calm     86% 0 mm 0 W/m2
23:14 10 °C 8.4 °C 1014.1 hPa Calm     87% 0 mm 0 W/m2
23:19 10 °C 8.4 °C 1014.1 hPa Calm     87% 0 mm 0 W/m2
23:24 9.9 °C 8.3 °C 1014.1 hPa Calm     87% 0 mm 0 W/m2
23:29 9.9 °C 8.3 °C 1014.1 hPa Calm     87% 0 mm 0 W/m2
23:34 10 °C 8.6 °C 1014.1 hPa Calm     87.8% 0 mm 0 W/m2
23:39 10.1 °C 8.7 °C 1013.8 hPa Calm     88% 0 mm 0 W/m2
23:44 10.1 °C 8.7 °C 1013.8 hPa Calm     88% 0 mm 0 W/m2
23:49 10.1 °C 8.7 °C 1013.8 hPa Calm     88% 0 mm 0 W/m2
23:54 10.1 °C 8.7 °C 1013.8 hPa Calm     88% 0 mm 0 W/m2
23:59 10.1 °C 8.7 °C 1013.8 hPa Calm     88% 0 mm 0 W/m2
Bath Spa Weather
Compliments of Weather Underground - 2 mb